sensor_id;sensor_type;location;lat;lon;timestamp;P1;durP1;ratioP1;P2;durP2;ratioP2
78860;SDS011;68211;45.774;15.892;2023-07-31T00:02:09;15.32;;;3.00;;
78860;SDS011;68211;45.774;15.892;2023-07-31T00:04:36;11.50;;;3.30;;
78860;SDS011;68211;45.774;15.892;2023-07-31T00:07:02;15.45;;;2.90;;
78860;SDS011;68211;45.774;15.892;2023-07-31T00:09:29;15.00;;;3.38;;
78860;SDS011;68211;45.774;15.892;2023-07-31T00:11:55;16.30;;;2.60;;
78860;SDS011;68211;45.774;15.892;2023-07-31T00:14:22;9.55;;;3.30;;
78860;SDS011;68211;45.774;15.892;2023-07-31T00:16:49;6.35;;;2.85;;
78860;SDS011;68211;45.774;15.892;2023-07-31T00:19:18;14.18;;;3.00;;
78860;SDS011;68211;45.774;15.892;2023-07-31T00:21:44;9.57;;;3.40;;
78860;SDS011;68211;45.774;15.892;2023-07-31T00:24:11;12.77;;;3.30;;
78860;SDS011;68211;45.774;15.892;2023-07-31T00:26:37;14.48;;;3.38;;
78860;SDS011;68211;45.774;15.892;2023-07-31T00:29:04;7.60;;;3.13;;
78860;SDS011;68211;45.774;15.892;2023-07-31T00:31:31;9.18;;;3.20;;
78860;SDS011;68211;45.774;15.892;2023-07-31T00:33:59;17.92;;;3.35;;
78860;SDS011;68211;45.774;15.892;2023-07-31T00:36:25;9.75;;;3.30;;
78860;SDS011;68211;45.774;15.892;2023-07-31T00:38:52;10.07;;;3.00;;
78860;SDS011;68211;45.774;15.892;2023-07-31T00:41:18;17.88;;;3.47;;
78860;SDS011;68211;45.774;15.892;2023-07-31T00:43:45;14.18;;;3.80;;
78860;SDS011;68211;45.774;15.892;2023-07-31T00:46:11;11.60;;;3.95;;
78860;SDS011;68211;45.774;15.892;2023-07-31T00:48:38;10.95;;;3.58;;
78860;SDS011;68211;45.774;15.892;2023-07-31T00:51:06;12.35;;;3.50;;
78860;SDS011;68211;45.774;15.892;2023-07-31T00:53:34;14.57;;;3.90;;
78860;SDS011;68211;45.774;15.892;2023-07-31T00:56:00;16.80;;;3.63;;
78860;SDS011;68211;45.774;15.892;2023-07-31T00:58:27;8.90;;;3.53;;
78860;SDS011;68211;45.774;15.892;2023-07-31T01:00:53;9.55;;;3.47;;
78860;SDS011;68211;45.774;15.892;2023-07-31T01:03:20;19.45;;;3.95;;
78860;SDS011;68211;45.774;15.892;2023-07-31T01:05:49;17.23;;;3.25;;
78860;SDS011;68211;45.774;15.892;2023-07-31T01:08:21;14.15;;;3.10;;
78860;SDS011;68211;45.774;15.892;2023-07-31T01:10:50;8.65;;;3.00;;
78860;SDS011;68211;45.774;15.892;2023-07-31T01:13:18;11.75;;;2.92;;
78860;SDS011;68211;45.774;15.892;2023-07-31T01:15:45;16.30;;;3.55;;
78860;SDS011;68211;45.774;15.892;2023-07-31T01:18:11;14.65;;;3.28;;
78860;SDS011;68211;45.774;15.892;2023-07-31T01:20:38;8.27;;;3.22;;
78860;SDS011;68211;45.774;15.892;2023-07-31T01:23:21;9.43;;;3.00;;
78860;SDS011;68211;45.774;15.892;2023-07-31T01:25:59;5.82;;;3.00;;
78860;SDS011;68211;45.774;15.892;2023-07-31T01:28:27;9.80;;;3.20;;
78860;SDS011;68211;45.774;15.892;2023-07-31T01:30:57;14.45;;;3.40;;
78860;SDS011;68211;45.774;15.892;2023-07-31T01:33:24;12.55;;;3.63;;
78860;SDS011;68211;45.774;15.892;2023-07-31T01:35:51;7.55;;;3.17;;
78860;SDS011;68211;45.774;15.892;2023-07-31T01:38:20;8.73;;;3.17;;
78860;SDS011;68211;45.774;15.892;2023-07-31T01:40:48;4.87;;;3.00;;
78860;SDS011;68211;45.774;15.892;2023-07-31T01:43:18;10.63;;;3.35;;
78860;SDS011;68211;45.774;15.892;2023-07-31T01:45:44;9.30;;;3.50;;
78860;SDS011;68211;45.774;15.892;2023-07-31T01:48:11;10.63;;;3.30;;
78860;SDS011;68211;45.774;15.892;2023-07-31T01:50:37;14.32;;;3.50;;
78860;SDS011;68211;45.774;15.892;2023-07-31T01:53:03;11.45;;;4.03;;
78860;SDS011;68211;45.774;15.892;2023-07-31T01:55:30;9.35;;;3.20;;
78860;SDS011;68211;45.774;15.892;2023-07-31T01:57:56;13.07;;;3.60;;
78860;SDS011;68211;45.774;15.892;2023-07-31T02:00:24;8.68;;;3.38;;
78860;SDS011;68211;45.774;15.892;2023-07-31T02:02:51;4.85;;;3.17;;
78860;SDS011;68211;45.774;15.892;2023-07-31T02:05:17;10.52;;;2.97;;
78860;SDS011;68211;45.774;15.892;2023-07-31T02:07:44;5.85;;;3.17;;
78860;SDS011;68211;45.774;15.892;2023-07-31T02:10:10;6.55;;;3.65;;
78860;SDS011;68211;45.774;15.892;2023-07-31T02:12:36;6.32;;;2.80;;
78860;SDS011;68211;45.774;15.892;2023-07-31T02:15:03;15.35;;;3.20;;
78860;SDS011;68211;45.774;15.892;2023-07-31T02:17:31;11.82;;;3.00;;
78860;SDS011;68211;45.774;15.892;2023-07-31T02:19:58;9.98;;;2.67;;
78860;SDS011;68211;45.774;15.892;2023-07-31T02:22:24;3.38;;;2.78;;
78860;SDS011;68211;45.774;15.892;2023-07-31T02:24:51;7.50;;;3.00;;
78860;SDS011;68211;45.774;15.892;2023-07-31T02:27:17;5.13;;;3.17;;
78860;SDS011;68211;45.774;15.892;2023-07-31T02:29:44;19.88;;;2.80;;
78860;SDS011;68211;45.774;15.892;2023-07-31T02:32:11;20.95;;;2.83;;
78860;SDS011;68211;45.774;15.892;2023-07-31T02:34:39;10.73;;;3.00;;
78860;SDS011;68211;45.774;15.892;2023-07-31T02:37:06;12.30;;;2.80;;
78860;SDS011;68211;45.774;15.892;2023-07-31T02:39:32;11.25;;;2.97;;
78860;SDS011;68211;45.774;15.892;2023-07-31T02:41:59;9.73;;;3.55;;
78860;SDS011;68211;45.774;15.892;2023-07-31T02:44:26;9.68;;;3.22;;
78860;SDS011;68211;45.774;15.892;2023-07-31T02:46:52;17.77;;;3.00;;
78860;SDS011;68211;45.774;15.892;2023-07-31T02:49:18;9.50;;;3.15;;
78860;SDS011;68211;45.774;15.892;2023-07-31T02:51:46;15.25;;;3.17;;
78860;SDS011;68211;45.774;15.892;2023-07-31T02:54:13;11.32;;;3.35;;
78860;SDS011;68211;45.774;15.892;2023-07-31T02:56:39;11.63;;;3.10;;
78860;SDS011;68211;45.774;15.892;2023-07-31T02:59:06;14.07;;;3.20;;
78860;SDS011;68211;45.774;15.892;2023-07-31T03:01:32;8.88;;;2.95;;
78860;SDS011;68211;45.774;15.892;2023-07-31T03:03:59;5.25;;;2.80;;
78860;SDS011;68211;45.774;15.892;2023-07-31T03:06:25;5.88;;;2.80;;
78860;SDS011;68211;45.774;15.892;2023-07-31T03:08:53;11.40;;;3.08;;
78860;SDS011;68211;45.774;15.892;2023-07-31T03:11:20;4.78;;;3.05;;
78860;SDS011;68211;45.774;15.892;2023-07-31T03:13:46;7.38;;;3.42;;
78860;SDS011;68211;45.774;15.892;2023-07-31T03:16:13;13.98;;;3.08;;
78860;SDS011;68211;45.774;15.892;2023-07-31T03:18:39;6.38;;;3.17;;
78860;SDS011;68211;45.774;15.892;2023-07-31T03:21:06;4.55;;;3.40;;
78860;SDS011;68211;45.774;15.892;2023-07-31T03:23:35;9.13;;;3.40;;
78860;SDS011;68211;45.774;15.892;2023-07-31T03:26:06;9.80;;;3.45;;
78860;SDS011;68211;45.774;15.892;2023-07-31T03:28:32;9.15;;;3.55;;
78860;SDS011;68211;45.774;15.892;2023-07-31T03:30:59;8.73;;;3.67;;
78860;SDS011;68211;45.774;15.892;2023-07-31T03:33:25;11.40;;;3.75;;
78860;SDS011;68211;45.774;15.892;2023-07-31T03:35:52;7.78;;;3.63;;
78860;SDS011;68211;45.774;15.892;2023-07-31T03:38:19;7.97;;;4.38;;
78860;SDS011;68211;45.774;15.892;2023-07-31T03:40:45;14.25;;;4.07;;
78860;SDS011;68211;45.774;15.892;2023-07-31T03:43:13;9.35;;;3.90;;
78860;SDS011;68211;45.774;15.892;2023-07-31T03:45:39;13.82;;;4.30;;
78860;SDS011;68211;45.774;15.892;2023-07-31T03:48:06;13.52;;;4.80;;
78860;SDS011;68211;45.774;15.892;2023-07-31T03:50:33;7.55;;;3.65;;
78860;SDS011;68211;45.774;15.892;2023-07-31T03:52:59;7.50;;;4.50;;
78860;SDS011;68211;45.774;15.892;2023-07-31T03:55:25;12.23;;;4.20;;
78860;SDS011;68211;45.774;15.892;2023-07-31T03:57:52;9.77;;;4.88;;
78860;SDS011;68211;45.774;15.892;2023-07-31T04:00:20;9.65;;;4.32;;
78860;SDS011;68211;45.774;15.892;2023-07-31T04:02:46;12.32;;;4.45;;
78860;SDS011;68211;45.774;15.892;2023-07-31T04:05:13;12.30;;;4.50;;
78860;SDS011;68211;45.774;15.892;2023-07-31T04:07:39;8.98;;;4.68;;
78860;SDS011;68211;45.774;15.892;2023-07-31T04:10:06;9.93;;;4.35;;
78860;SDS011;68211;45.774;15.892;2023-07-31T04:12:32;6.40;;;3.75;;
78860;SDS011;68211;45.774;15.892;2023-07-31T04:14:59;6.45;;;3.92;;
78860;SDS011;68211;45.774;15.892;2023-07-31T04:17:27;11.25;;;4.35;;
78860;SDS011;68211;45.774;15.892;2023-07-31T04:19:53;11.48;;;4.30;;
78860;SDS011;68211;45.774;15.892;2023-07-31T04:22:20;14.13;;;4.18;;
78860;SDS011;68211;45.774;15.892;2023-07-31T04:24:46;11.48;;;4.25;;
78860;SDS011;68211;45.774;15.892;2023-07-31T04:27:13;8.15;;;4.15;;
78860;SDS011;68211;45.774;15.892;2023-07-31T04:29:39;8.23;;;4.25;;
78860;SDS011;68211;45.774;15.892;2023-07-31T04:32:06;11.90;;;3.85;;
78860;SDS011;68211;45.774;15.892;2023-07-31T04:34:34;11.77;;;4.07;;
78860;SDS011;68211;45.774;15.892;2023-07-31T04:37:00;12.77;;;3.92;;
78860;SDS011;68211;45.774;15.892;2023-07-31T04:39:27;13.75;;;4.00;;
78860;SDS011;68211;45.774;15.892;2023-07-31T04:41:53;13.30;;;3.88;;
78860;SDS011;68211;45.774;15.892;2023-07-31T04:44:20;11.63;;;3.78;;
78860;SDS011;68211;45.774;15.892;2023-07-31T04:46:46;7.72;;;3.65;;
78860;SDS011;68211;45.774;15.892;2023-07-31T04:49:13;15.73;;;3.90;;
78860;SDS011;68211;45.774;15.892;2023-07-31T04:51:41;11.07;;;4.25;;
78860;SDS011;68211;45.774;15.892;2023-07-31T04:54:07;13.90;;;3.72;;
78860;SDS011;68211;45.774;15.892;2023-07-31T04:56:34;17.00;;;4.60;;
78860;SDS011;68211;45.774;15.892;2023-07-31T04:59:00;15.32;;;3.92;;
78860;SDS011;68211;45.774;15.892;2023-07-31T05:01:26;10.52;;;4.30;;
78860;SDS011;68211;45.774;15.892;2023-07-31T05:03:53;8.98;;;3.25;;
78860;SDS011;68211;45.774;15.892;2023-07-31T05:06:20;11.90;;;3.30;;
78860;SDS011;68211;45.774;15.892;2023-07-31T05:08:47;13.20;;;3.90;;
78860;SDS011;68211;45.774;15.892;2023-07-31T05:11:14;10.07;;;3.92;;
78860;SDS011;68211;45.774;15.892;2023-07-31T05:13:40;8.27;;;3.83;;
78860;SDS011;68211;45.774;15.892;2023-07-31T05:16:07;13.45;;;3.95;;
78860;SDS011;68211;45.774;15.892;2023-07-31T05:18:33;12.52;;;4.03;;
78860;SDS011;68211;45.774;15.892;2023-07-31T05:21:00;6.03;;;3.70;;
78860;SDS011;68211;45.774;15.892;2023-07-31T05:23:26;14.98;;;4.63;;
78860;SDS011;68211;45.774;15.892;2023-07-31T05:25:54;6.88;;;4.13;;
78860;SDS011;68211;45.774;15.892;2023-07-31T05:28:21;16.55;;;4.85;;
78860;SDS011;68211;45.774;15.892;2023-07-31T05:30:47;19.00;;;4.70;;
78860;SDS011;68211;45.774;15.892;2023-07-31T05:33:14;16.67;;;4.60;;
78860;SDS011;68211;45.774;15.892;2023-07-31T05:35:40;19.00;;;4.40;;
78860;SDS011;68211;45.774;15.892;2023-07-31T05:38:07;10.85;;;4.70;;
78860;SDS011;68211;45.774;15.892;2023-07-31T05:40:33;11.25;;;4.50;;
78860;SDS011;68211;45.774;15.892;2023-07-31T05:43:01;18.13;;;4.80;;
78860;SDS011;68211;45.774;15.892;2023-07-31T05:45:28;11.57;;;4.28;;
78860;SDS011;68211;45.774;15.892;2023-07-31T05:47:54;9.90;;;4.55;;
78860;SDS011;68211;45.774;15.892;2023-07-31T05:50:21;15.52;;;5.13;;
78860;SDS011;68211;45.774;15.892;2023-07-31T05:52:47;12.75;;;4.40;;
78860;SDS011;68211;45.774;15.892;2023-07-31T05:55:14;10.75;;;4.25;;
78860;SDS011;68211;45.774;15.892;2023-07-31T05:57:40;19.92;;;5.07;;
78860;SDS011;68211;45.774;15.892;2023-07-31T06:00:09;6.75;;;4.22;;
78860;SDS011;68211;45.774;15.892;2023-07-31T06:02:35;9.30;;;4.30;;
78860;SDS011;68211;45.774;15.892;2023-07-31T06:05:02;17.10;;;4.32;;
78860;SDS011;68211;45.774;15.892;2023-07-31T06:07:28;11.38;;;4.75;;
78860;SDS011;68211;45.774;15.892;2023-07-31T06:09:55;9.20;;;3.85;;
78860;SDS011;68211;45.774;15.892;2023-07-31T06:12:21;7.25;;;3.78;;
78860;SDS011;68211;45.774;15.892;2023-07-31T06:14:48;8.93;;;4.07;;
78860;SDS011;68211;45.774;15.892;2023-07-31T06:17:16;11.85;;;3.90;;
78860;SDS011;68211;45.774;15.892;2023-07-31T06:19:43;9.77;;;3.78;;
78860;SDS011;68211;45.774;15.892;2023-07-31T06:22:09;7.80;;;3.88;;
78860;SDS011;68211;45.774;15.892;2023-07-31T06:24:35;5.72;;;3.75;;
78860;SDS011;68211;45.774;15.892;2023-07-31T06:27:02;5.15;;;3.53;;
78860;SDS011;68211;45.774;15.892;2023-07-31T06:29:28;6.30;;;3.90;;
78860;SDS011;68211;45.774;15.892;2023-07-31T06:31:55;9.35;;;4.60;;
78860;SDS011;68211;45.774;15.892;2023-07-31T06:34:23;9.00;;;4.20;;
78860;SDS011;68211;45.774;15.892;2023-07-31T06:36:49;7.93;;;4.20;;
78860;SDS011;68211;45.774;15.892;2023-07-31T06:39:16;8.45;;;3.97;;
78860;SDS011;68211;45.774;15.892;2023-07-31T06:41:43;16.10;;;4.47;;
78860;SDS011;68211;45.774;15.892;2023-07-31T06:44:09;7.35;;;3.97;;
78860;SDS011;68211;45.774;15.892;2023-07-31T06:46:36;13.23;;;4.40;;
78860;SDS011;68211;45.774;15.892;2023-07-31T06:49:03;10.75;;;3.60;;
78860;SDS011;68211;45.774;15.892;2023-07-31T06:51:31;6.07;;;3.58;;
78860;SDS011;68211;45.774;15.892;2023-07-31T06:53:57;6.25;;;3.58;;
78860;SDS011;68211;45.774;15.892;2023-07-31T06:56:24;10.82;;;3.45;;
78860;SDS011;68211;45.774;15.892;2023-07-31T06:58:50;6.03;;;3.95;;
78860;SDS011;68211;45.774;15.892;2023-07-31T07:01:17;8.43;;;3.45;;
78860;SDS011;68211;45.774;15.892;2023-07-31T07:03:43;7.03;;;3.65;;
78860;SDS011;68211;45.774;15.892;2023-07-31T07:06:10;8.80;;;3.25;;
78860;SDS011;68211;45.774;15.892;2023-07-31T07:08:38;7.20;;;3.70;;
78860;SDS011;68211;45.774;15.892;2023-07-31T07:11:04;10.40;;;3.88;;
78860;SDS011;68211;45.774;15.892;2023-07-31T07:13:31;7.95;;;3.22;;
78860;SDS011;68211;45.774;15.892;2023-07-31T07:15:57;5.88;;;3.17;;
78860;SDS011;68211;45.774;15.892;2023-07-31T07:18:25;5.30;;;3.25;;
78860;SDS011;68211;45.774;15.892;2023-07-31T07:20:52;5.72;;;3.28;;
78860;SDS011;68211;45.774;15.892;2023-07-31T07:23:19;10.40;;;3.10;;
78860;SDS011;68211;45.774;15.892;2023-07-31T07:25:47;3.88;;;2.90;;
78860;SDS011;68211;45.774;15.892;2023-07-31T07:28:14;6.82;;;3.13;;
78860;SDS011;68211;45.774;15.892;2023-07-31T07:30:40;3.83;;;3.10;;
78860;SDS011;68211;45.774;15.892;2023-07-31T07:33:07;4.40;;;2.80;;
78860;SDS011;68211;45.774;15.892;2023-07-31T07:35:33;7.55;;;3.22;;
78860;SDS011;68211;45.774;15.892;2023-07-31T07:38:00;6.45;;;3.40;;
78860;SDS011;68211;45.774;15.892;2023-07-31T07:40:26;6.53;;;3.20;;
78860;SDS011;68211;45.774;15.892;2023-07-31T07:42:54;7.78;;;3.50;;
78860;SDS011;68211;45.774;15.892;2023-07-31T07:45:21;5.70;;;3.30;;
78860;SDS011;68211;45.774;15.892;2023-07-31T07:47:48;7.07;;;3.28;;
78860;SDS011;68211;45.774;15.892;2023-07-31T07:50:14;5.50;;;3.67;;
78860;SDS011;68211;45.774;15.892;2023-07-31T07:52:41;4.43;;;3.00;;
78860;SDS011;68211;45.774;15.892;2023-07-31T07:55:08;7.40;;;3.05;;
78860;SDS011;68211;45.774;15.892;2023-07-31T07:57:34;3.33;;;3.00;;
78860;SDS011;68211;45.774;15.892;2023-07-31T08:00:02;7.18;;;3.25;;
78860;SDS011;68211;45.774;15.892;2023-07-31T08:02:29;4.63;;;3.00;;
78860;SDS011;68211;45.774;15.892;2023-07-31T08:04:56;8.68;;;3.55;;
78860;SDS011;68211;45.774;15.892;2023-07-31T08:07:22;6.30;;;3.35;;
78860;SDS011;68211;45.774;15.892;2023-07-31T08:09:48;4.97;;;3.38;;
78860;SDS011;68211;45.774;15.892;2023-07-31T08:12:15;4.85;;;2.90;;
78860;SDS011;68211;45.774;15.892;2023-07-31T08:14:45;11.43;;;3.33;;
78860;SDS011;68211;45.774;15.892;2023-07-31T08:17:21;6.50;;;3.00;;
78860;SDS011;68211;45.774;15.892;2023-07-31T08:20:01;4.82;;;3.10;;
78860;SDS011;68211;45.774;15.892;2023-07-31T08:22:33;5.75;;;2.97;;
78860;SDS011;68211;45.774;15.892;2023-07-31T08:25:06;5.95;;;3.40;;
78860;SDS011;68211;45.774;15.892;2023-07-31T08:27:44;7.15;;;3.30;;
78860;SDS011;68211;45.774;15.892;2023-07-31T08:30:18;5.50;;;3.40;;
78860;SDS011;68211;45.774;15.892;2023-07-31T08:32:59;4.40;;;3.17;;
78860;SDS011;68211;45.774;15.892;2023-07-31T08:35:26;6.47;;;3.45;;
78860;SDS011;68211;45.774;15.892;2023-07-31T08:37:56;6.28;;;3.65;;
78860;SDS011;68211;45.774;15.892;2023-07-31T08:40:23;4.97;;;3.47;;
78860;SDS011;68211;45.774;15.892;2023-07-31T08:42:56;3.38;;;2.92;;
78860;SDS011;68211;45.774;15.892;2023-07-31T08:45:27;7.03;;;3.50;;
78860;SDS011;68211;45.774;15.892;2023-07-31T08:48:02;5.95;;;3.28;;
78860;SDS011;68211;45.774;15.892;2023-07-31T08:50:30;9.20;;;3.63;;
78860;SDS011;68211;45.774;15.892;2023-07-31T08:53:00;5.00;;;3.35;;
78860;SDS011;68211;45.774;15.892;2023-07-31T08:55:32;7.75;;;3.33;;
78860;SDS011;68211;45.774;15.892;2023-07-31T08:58:04;6.18;;;3.33;;
78860;SDS011;68211;45.774;15.892;2023-07-31T09:00:34;5.35;;;3.97;;
78860;SDS011;68211;45.774;15.892;2023-07-31T09:03:07;7.90;;;3.38;;
78860;SDS011;68211;45.774;15.892;2023-07-31T09:05:49;6.53;;;3.22;;
78860;SDS011;68211;45.774;15.892;2023-07-31T09:10:57;7.50;;;3.28;;
78860;SDS011;68211;45.774;15.892;2023-07-31T09:13:27;5.70;;;3.47;;
78860;SDS011;68211;45.774;15.892;2023-07-31T09:15:55;6.47;;;3.38;;
78860;SDS011;68211;45.774;15.892;2023-07-31T09:18:23;10.52;;;3.70;;
78860;SDS011;68211;45.774;15.892;2023-07-31T09:21:00;9.15;;;3.00;;
78860;SDS011;68211;45.774;15.892;2023-07-31T09:23:27;7.28;;;3.55;;
78860;SDS011;68211;45.774;15.892;2023-07-31T09:28:40;7.47;;;3.17;;
78860;SDS011;68211;45.774;15.892;2023-07-31T09:31:12;8.55;;;3.65;;
78860;SDS011;68211;45.774;15.892;2023-07-31T09:33:55;5.60;;;3.30;;
78860;SDS011;68211;45.774;15.892;2023-07-31T09:36:22;6.53;;;3.47;;
78860;SDS011;68211;45.774;15.892;2023-07-31T09:38:51;6.80;;;3.50;;
78860;SDS011;68211;45.774;15.892;2023-07-31T09:41:18;5.97;;;3.60;;
78860;SDS011;68211;45.774;15.892;2023-07-31T09:43:52;7.90;;;3.63;;
78860;SDS011;68211;45.774;15.892;2023-07-31T09:46:20;4.25;;;3.20;;
78860;SDS011;68211;45.774;15.892;2023-07-31T09:49:14;4.65;;;3.30;;
78860;SDS011;68211;45.774;15.892;2023-07-31T09:51:44;12.02;;;4.07;;
78860;SDS011;68211;45.774;15.892;2023-07-31T09:57:06;6.30;;;3.17;;
78860;SDS011;68211;45.774;15.892;2023-07-31T09:59:45;3.85;;;3.25;;
78860;SDS011;68211;45.774;15.892;2023-07-31T10:02:21;8.43;;;3.58;;
78860;SDS011;68211;45.774;15.892;2023-07-31T10:04:50;6.88;;;3.53;;
78860;SDS011;68211;45.774;15.892;2023-07-31T10:07:17;6.03;;;3.40;;
78860;SDS011;68211;45.774;15.892;2023-07-31T10:09:44;5.72;;;3.38;;
78860;SDS011;68211;45.774;15.892;2023-07-31T10:12:13;4.93;;;3.47;;
78860;SDS011;68211;45.774;15.892;2023-07-31T10:14:41;10.18;;;3.20;;
78860;SDS011;68211;45.774;15.892;2023-07-31T10:17:10;11.52;;;3.40;;
78860;SDS011;68211;45.774;15.892;2023-07-31T10:19:47;6.85;;;3.33;;
78860;SDS011;68211;45.774;15.892;2023-07-31T10:22:21;12.23;;;3.35;;
78860;SDS011;68211;45.774;15.892;2023-07-31T10:24:48;5.22;;;3.63;;
78860;SDS011;68211;45.774;15.892;2023-07-31T10:27:15;8.70;;;3.20;;
78860;SDS011;68211;45.774;15.892;2023-07-31T10:29:43;8.68;;;3.30;;
78860;SDS011;68211;45.774;15.892;2023-07-31T10:32:10;8.40;;;3.30;;
78860;SDS011;68211;45.774;15.892;2023-07-31T10:34:42;5.18;;;3.30;;
78860;SDS011;68211;45.774;15.892;2023-07-31T10:37:21;8.30;;;3.72;;
78860;SDS011;68211;45.774;15.892;2023-07-31T10:39:56;9.68;;;3.63;;
78860;SDS011;68211;45.774;15.892;2023-07-31T10:42:29;8.90;;;3.22;;
78860;SDS011;68211;45.774;15.892;2023-07-31T10:44:57;5.38;;;3.30;;
78860;SDS011;68211;45.774;15.892;2023-07-31T10:47:30;6.22;;;3.30;;
78860;SDS011;68211;45.774;15.892;2023-07-31T10:52:55;6.40;;;3.13;;
78860;SDS011;68211;45.774;15.892;2023-07-31T10:55:26;11.32;;;3.42;;
78860;SDS011;68211;45.774;15.892;2023-07-31T10:57:54;7.22;;;3.15;;
78860;SDS011;68211;45.774;15.892;2023-07-31T11:00:22;6.95;;;3.15;;
78860;SDS011;68211;45.774;15.892;2023-07-31T11:02:58;5.20;;;3.75;;
78860;SDS011;68211;45.774;15.892;2023-07-31T11:05:41;5.82;;;3.30;;
78860;SDS011;68211;45.774;15.892;2023-07-31T11:08:18;4.78;;;3.53;;
78860;SDS011;68211;45.774;15.892;2023-07-31T11:11:04;7.55;;;3.72;;
78860;SDS011;68211;45.774;15.892;2023-07-31T11:13:39;5.35;;;3.55;;
78860;SDS011;68211;45.774;15.892;2023-07-31T11:16:08;8.82;;;3.50;;
78860;SDS011;68211;45.774;15.892;2023-07-31T11:18:38;7.93;;;3.95;;
78860;SDS011;68211;45.774;15.892;2023-07-31T11:21:11;4.90;;;3.60;;
78860;SDS011;68211;45.774;15.892;2023-07-31T11:23:45;4.88;;;3.70;;
78860;SDS011;68211;45.774;15.892;2023-07-31T11:26:12;11.25;;;3.63;;
78860;SDS011;68211;45.774;15.892;2023-07-31T11:28:43;7.63;;;3.67;;
78860;SDS011;68211;45.774;15.892;2023-07-31T11:31:12;5.07;;;3.55;;
78860;SDS011;68211;45.774;15.892;2023-07-31T11:33:38;11.10;;;3.58;;
78860;SDS011;68211;45.774;15.892;2023-07-31T11:36:05;5.18;;;3.60;;
78860;SDS011;68211;45.774;15.892;2023-07-31T11:38:33;6.70;;;3.53;;
78860;SDS011;68211;45.774;15.892;2023-07-31T11:41:03;5.57;;;3.05;;
78860;SDS011;68211;45.774;15.892;2023-07-31T11:43:30;7.78;;;3.47;;
78860;SDS011;68211;45.774;15.892;2023-07-31T11:45:58;4.65;;;3.38;;
78860;SDS011;68211;45.774;15.892;2023-07-31T11:48:26;5.30;;;3.50;;
78860;SDS011;68211;45.774;15.892;2023-07-31T11:50:53;6.68;;;3.45;;
78860;SDS011;68211;45.774;15.892;2023-07-31T11:53:21;5.32;;;3.60;;
78860;SDS011;68211;45.774;15.892;2023-07-31T11:55:48;4.80;;;3.50;;
78860;SDS011;68211;45.774;15.892;2023-07-31T11:58:16;7.75;;;3.28;;
78860;SDS011;68211;45.774;15.892;2023-07-31T12:00:44;4.35;;;3.25;;
78860;SDS011;68211;45.774;15.892;2023-07-31T12:03:10;7.28;;;3.47;;
78860;SDS011;68211;45.774;15.892;2023-07-31T12:05:37;6.70;;;3.17;;
78860;SDS011;68211;45.774;15.892;2023-07-31T12:08:08;5.53;;;3.60;;
78860;SDS011;68211;45.774;15.892;2023-07-31T12:10:35;6.68;;;3.88;;
78860;SDS011;68211;45.774;15.892;2023-07-31T12:13:02;10.93;;;3.28;;
78860;SDS011;68211;45.774;15.892;2023-07-31T12:15:31;4.95;;;3.65;;
78860;SDS011;68211;45.774;15.892;2023-07-31T12:17:58;8.32;;;3.60;;
78860;SDS011;68211;45.774;15.892;2023-07-31T12:20:24;8.02;;;3.47;;
78860;SDS011;68211;45.774;15.892;2023-07-31T12:22:51;5.38;;;3.50;;
78860;SDS011;68211;45.774;15.892;2023-07-31T12:25:17;6.57;;;3.10;;
78860;SDS011;68211;45.774;15.892;2023-07-31T12:27:44;3.88;;;3.28;;
78860;SDS011;68211;45.774;15.892;2023-07-31T12:30:25;8.65;;;3.63;;
78860;SDS011;68211;45.774;15.892;2023-07-31T12:32:53;4.35;;;3.30;;
78860;SDS011;68211;45.774;15.892;2023-07-31T12:35:20;5.35;;;3.55;;
78860;SDS011;68211;45.774;15.892;2023-07-31T12:37:48;10.80;;;3.40;;
78860;SDS011;68211;45.774;15.892;2023-07-31T12:40:14;5.95;;;3.83;;
78860;SDS011;68211;45.774;15.892;2023-07-31T12:42:49;5.40;;;3.30;;
78860;SDS011;68211;45.774;15.892;2023-07-31T12:45:15;5.75;;;3.40;;
78860;SDS011;68211;45.774;15.892;2023-07-31T12:47:42;5.93;;;3.10;;
78860;SDS011;68211;45.774;15.892;2023-07-31T12:50:10;4.50;;;3.10;;
78860;SDS011;68211;45.774;15.892;2023-07-31T12:52:36;8.20;;;3.58;;
78860;SDS011;68211;45.774;15.892;2023-07-31T12:55:03;5.97;;;3.30;;
78860;SDS011;68211;45.774;15.892;2023-07-31T12:57:34;4.22;;;3.00;;
78860;SDS011;68211;45.774;15.892;2023-07-31T13:02:31;4.13;;;3.30;;
78860;SDS011;68211;45.774;15.892;2023-07-31T13:05:14;6.15;;;3.35;;
78860;SDS011;68211;45.774;15.892;2023-07-31T13:07:43;6.78;;;3.50;;
78860;SDS011;68211;45.774;15.892;2023-07-31T13:10:10;6.95;;;3.25;;
78860;SDS011;68211;45.774;15.892;2023-07-31T13:12:37;5.57;;;3.47;;
78860;SDS011;68211;45.774;15.892;2023-07-31T13:15:09;5.43;;;3.22;;
78860;SDS011;68211;45.774;15.892;2023-07-31T13:17:43;5.93;;;3.30;;
78860;SDS011;68211;45.774;15.892;2023-07-31T13:20:20;4.85;;;3.33;;
78860;SDS011;68211;45.774;15.892;2023-07-31T13:22:48;4.85;;;3.60;;
78860;SDS011;68211;45.774;15.892;2023-07-31T13:25:15;5.13;;;3.35;;
78860;SDS011;68211;45.774;15.892;2023-07-31T13:30:17;7.93;;;3.50;;
78860;SDS011;68211;45.774;15.892;2023-07-31T13:32:46;6.50;;;3.30;;
78860;SDS011;68211;45.774;15.892;2023-07-31T13:35:13;3.85;;;3.00;;
78860;SDS011;68211;45.774;15.892;2023-07-31T13:37:42;7.43;;;3.13;;
78860;SDS011;68211;45.774;15.892;2023-07-31T13:40:10;4.43;;;3.20;;
78860;SDS011;68211;45.774;15.892;2023-07-31T13:42:39;6.00;;;3.50;;
78860;SDS011;68211;45.774;15.892;2023-07-31T13:45:07;5.43;;;3.28;;
78860;SDS011;68211;45.774;15.892;2023-07-31T13:47:39;7.22;;;3.05;;
78860;SDS011;68211;45.774;15.892;2023-07-31T13:50:13;7.05;;;3.25;;
78860;SDS011;68211;45.774;15.892;2023-07-31T13:52:44;3.88;;;3.33;;
78860;SDS011;68211;45.774;15.892;2023-07-31T13:55:25;6.35;;;3.58;;
78860;SDS011;68211;45.774;15.892;2023-07-31T13:58:02;6.35;;;3.20;;
78860;SDS011;68211;45.774;15.892;2023-07-31T14:00:32;6.38;;;3.55;;
78860;SDS011;68211;45.774;15.892;2023-07-31T14:03:00;6.38;;;3.60;;
78860;SDS011;68211;45.774;15.892;2023-07-31T14:08:11;7.32;;;3.50;;
78860;SDS011;68211;45.774;15.892;2023-07-31T14:10:38;4.53;;;3.13;;
78860;SDS011;68211;45.774;15.892;2023-07-31T14:13:05;3.53;;;3.03;;
78860;SDS011;68211;45.774;15.892;2023-07-31T14:15:31;4.88;;;3.25;;
78860;SDS011;68211;45.774;15.892;2023-07-31T14:17:59;5.18;;;3.55;;
78860;SDS011;68211;45.774;15.892;2023-07-31T14:20:27;8.13;;;3.50;;
78860;SDS011;68211;45.774;15.892;2023-07-31T14:22:54;4.93;;;3.70;;
78860;SDS011;68211;45.774;15.892;2023-07-31T14:25:26;3.85;;;3.22;;
78860;SDS011;68211;45.774;15.892;2023-07-31T14:27:52;5.03;;;3.23;;
78860;SDS011;68211;45.774;15.892;2023-07-31T14:30:20;5.57;;;3.20;;
78860;SDS011;68211;45.774;15.892;2023-07-31T14:32:46;5.00;;;3.10;;
78860;SDS011;68211;45.774;15.892;2023-07-31T14:35:13;6.22;;;2.97;;
78860;SDS011;68211;45.774;15.892;2023-07-31T14:37:43;3.88;;;3.47;;
78860;SDS011;68211;45.774;15.892;2023-07-31T14:40:17;4.15;;;3.22;;
78860;SDS011;68211;45.774;15.892;2023-07-31T14:42:49;5.53;;;3.20;;
78860;SDS011;68211;45.774;15.892;2023-07-31T14:45:16;9.18;;;3.25;;
78860;SDS011;68211;45.774;15.892;2023-07-31T14:47:43;4.38;;;3.25;;
78860;SDS011;68211;45.774;15.892;2023-07-31T14:50:10;4.85;;;3.15;;
78860;SDS011;68211;45.774;15.892;2023-07-31T14:52:38;5.20;;;3.72;;
78860;SDS011;68211;45.774;15.892;2023-07-31T14:55:08;4.50;;;3.08;;
78860;SDS011;68211;45.774;15.892;2023-07-31T14:57:34;6.03;;;3.47;;